Time;durP1;ratioP1;P1;durP2;ratioP2;P2;SDS_P1;SDS_P2;PMS_P1;PMS_P2;Temp;Humidity;BMP_temperature;BMP_pressure;BME280_temperature;BME280_humidity;BME280_pressure;Samples;Min_cycle;Max_cycle;Signal;HPM_P1;HPM_P2
2023/03/31 00:01:24;;;;;;;6.07;2.10;;;;;;;9.83;100.00;100288.94;4993707;28;20053;-81
2023/03/31 00:03:50;;;;;;;10.25;3.00;;;;;;;9.87;100.00;100284.16;5001431;28;20035;-81
2023/03/31 00:06:18;;;;;;;9.10;3.28;;;;;;;9.87;100.00;100270.56;4991334;28;20038;-80
2023/03/31 00:08:46;;;;;;;5.35;2.40;;;;;;;9.88;100.00;100269.56;4989780;28;20136;-81
2023/03/31 00:11:11;;;;;;;10.10;2.85;;;;;;;9.88;100.00;100250.56;4977037;28;20032;-81
2023/03/31 00:13:37;;;;;;;10.02;3.10;;;;;;;9.90;100.00;100248.59;4995883;28;20034;-81
2023/03/31 00:16:05;;;;;;;9.38;2.85;;;;;;;9.89;100.00;100239.59;5014774;28;20026;-81
2023/03/31 00:18:31;;;;;;;4.80;2.20;;;;;;;9.87;100.00;100237.97;5000095;28;20103;-81
2023/03/31 00:21:23;;;;;;;9.25;2.45;;;;;;;9.91;100.00;100228.59;4978365;28;20022;-81
2023/03/31 00:23:53;;;;;;;9.05;2.17;;;;;;;9.89;100.00;100217.00;4994151;28;20098;-81
2023/03/31 00:26:19;;;;;;;9.10;2.67;;;;;;;9.89;100.00;100212.41;5003145;28;20041;-81
2023/03/31 00:28:44;;;;;;;8.05;1.98;;;;;;;9.87;100.00;100208.06;4977142;28;20026;-81
2023/03/31 00:31:10;;;;;;;9.23;2.20;;;;;;;9.86;100.00;100200.91;4961424;28;20031;-80
2023/03/31 00:33:35;;;;;;;5.30;2.13;;;;;;;9.85;100.00;100207.34;4964259;28;20116;-81
2023/03/31 00:36:04;;;;;;;9.13;2.47;;;;;;;9.80;100.00;100190.56;4977494;28;20390;-81
2023/03/31 00:38:31;;;;;;;10.30;2.30;;;;;;;9.78;100.00;100193.38;5010580;28;20096;-81
2023/03/31 00:40:58;;;;;;;9.95;2.00;;;;;;;9.74;100.00;100185.59;4972969;28;20042;-81
2023/03/31 00:43:36;;;;;;;8.80;2.20;;;;;;;9.73;100.00;100178.44;4987169;28;20125;-81
2023/03/31 00:46:14;;;;;;;8.13;2.45;;;;;;;9.68;100.00;100168.78;4974867;28;20031;-81
2023/03/31 00:49:00;;;;;;;10.52;2.42;;;;;;;9.69;100.00;100164.22;4996617;28;20033;-82
2023/03/31 00:51:30;;;;;;;7.55;2.10;;;;;;;9.68;100.00;100163.38;4961363;28;20494;-80
2023/03/31 00:54:03;;;;;;;7.32;2.22;;;;;;;9.66;100.00;100164.50;4974891;28;20122;-80
2023/03/31 00:56:35;;;;;;;10.88;2.28;;;;;;;9.63;100.00;100154.72;4993075;28;20030;-82
2023/03/31 00:59:06;;;;;;;7.95;2.03;;;;;;;9.63;100.00;100156.56;4995042;28;20033;-80
2023/03/31 01:01:41;;;;;;;6.28;1.83;;;;;;;9.64;100.00;100152.88;4989679;28;20552;-81
2023/03/31 01:04:08;;;;;;;11.23;2.28;;;;;;;9.65;100.00;100155.47;5014152;28;20100;-81
2023/03/31 01:06:45;;;;;;;11.30;2.00;;;;;;;9.65;100.00;100146.44;5008569;28;20026;-82
2023/03/31 01:09:16;;;;;;;8.55;1.77;;;;;;;9.72;100.00;100144.97;4979014;28;20042;-81
2023/03/31 01:11:43;;;;;;;7.95;2.83;;;;;;;9.72;100.00;100144.97;4978988;28;20125;-81
2023/03/31 01:14:09;;;;;;;6.38;2.40;;;;;;;9.71;100.00;100132.38;4991760;28;20481;-81
2023/03/31 01:16:38;;;;;;;12.35;2.35;;;;;;;9.76;100.00;100126.59;4974662;28;20034;-81
2023/03/31 01:19:11;;;;;;;7.82;2.10;;;;;;;9.80;100.00;100125.34;4978205;28;20517;-81
2023/03/31 01:22:27;;;;;;;8.85;2.13;;;;;;;9.81;100.00;100117.06;4992175;28;20509;-80
2023/03/31 01:25:14;;;;;;;8.80;2.63;;;;;;;9.84;100.00;100114.13;4963693;28;20057;-81
2023/03/31 01:27:52;;;;;;;11.70;1.92;;;;;;;9.87;100.00;100104.84;4992516;28;20051;-81
2023/03/31 01:30:33;;;;;;;11.10;2.00;;;;;;;9.89;100.00;100108.31;4994242;28;20038;-79
2023/03/31 01:33:22;;;;;;;11.48;1.92;;;;;;;9.89;100.00;100095.59;4992427;28;20030;-81
2023/03/31 01:36:21;;;;;;;12.75;2.50;;;;;;;9.89;100.00;100095.59;4991726;28;20097;-81
2023/03/31 01:39:13;;;;;;;7.30;2.47;;;;;;;9.83;100.00;100084.34;4977501;28;20437;-81
2023/03/31 01:42:12;;;;;;;11.98;2.63;;;;;;;9.87;100.00;100078.53;4992403;28;20068;-81
2023/03/31 01:45:00;;;;;;;12.48;2.53;;;;;;;9.87;100.00;100080.38;4957213;28;20031;-82
2023/03/31 01:47:39;;;;;;;7.00;2.00;;;;;;;9.88;100.00;100074.81;4989837;28;20069;-81
2023/03/31 01:50:34;;;;;;;6.43;1.90;;;;;;;9.86;100.00;100059.66;4973370;28;20455;-81
2023/03/31 01:53:13;;;;;;;5.75;2.00;;;;;;;9.89;100.00;100062.13;4988514;28;20056;-80
2023/03/31 01:56:04;;;;;;;10.75;2.75;;;;;;;9.89;100.00;100052.13;4994886;28;20438;-82
2023/03/31 01:58:41;;;;;;;14.60;2.53;;;;;;;9.87;100.00;100037.78;4993650;28;20482;-83
2023/03/31 02:01:25;;;;;;;8.02;2.05;;;;;;;9.90;100.00;100033.97;4993730;28;20038;-84
2023/03/31 02:03:57;;;;;;;6.70;1.80;;;;;;;9.86;100.00;100022.47;4993863;28;20525;-83
2023/03/31 02:06:28;;;;;;;8.70;2.08;;;;;;;9.86;100.00;100008.91;4993330;28;20057;-83
2023/03/31 02:08:59;;;;;;;9.75;2.60;;;;;;;9.86;100.00;100008.91;4992361;28;20133;-83
2023/03/31 02:11:27;;;;;;;11.07;2.30;;;;;;;9.84;100.00;99996.41;4976827;28;20043;-83
2023/03/31 02:13:55;;;;;;;9.50;2.65;;;;;;;9.87;100.00;99996.16;4992308;28;20394;-82
2023/03/31 02:16:25;;;;;;;9.05;2.28;;;;;;;9.86;100.00;99984.44;5011022;28;20080;-83
2023/03/31 02:19:01;;;;;;;11.80;1.88;;;;;;;9.83;100.00;99970.25;5002424;28;20439;-83
2023/03/31 02:21:29;;;;;;;5.55;1.88;;;;;;;9.82;100.00;99958.53;4992418;28;20138;-83
2023/03/31 02:23:55;;;;;;;7.47;2.08;;;;;;;9.81;100.00;99953.22;4992913;28;20517;-83
2023/03/31 02:26:29;;;;;;;9.73;2.17;;;;;;;9.83;100.00;99943.09;4992812;28;20049;-83
2023/03/31 02:28:56;;;;;;;8.45;1.88;;;;;;;9.81;100.00;99939.66;4991783;28;20034;-83
2023/03/31 02:31:45;;;;;;;5.90;1.98;;;;;;;9.76;100.00;99922.88;4991483;28;20501;-84
2023/03/31 02:34:11;;;;;;;6.22;1.67;;;;;;;9.79;100.00;99925.31;4987851;28;20144;-83
2023/03/31 02:36:37;;;;;;;9.15;2.70;;;;;;;9.79;100.00;99917.16;5010765;28;20458;-83
2023/03/31 02:39:17;;;;;;;9.73;2.33;;;;;;;9.80;100.00;99908.03;5013099;28;20171;-84
2023/03/31 02:41:43;;;;;;;11.18;2.22;;;;;;;9.79;100.00;99896.31;5011799;28;20025;-84
2023/03/31 02:44:09;;;;;;;11.00;1.98;;;;;;;9.82;100.00;99887.88;5010448;28;20107;-84
2023/03/31 02:46:36;;;;;;;12.13;2.88;;;;;;;9.80;100.00;99876.31;5013808;28;20109;-83
2023/03/31 02:49:05;;;;;;;8.30;2.20;;;;;;;9.80;100.00;99870.88;4986004;28;20034;-84
2023/03/31 02:51:53;;;;;;;7.75;2.67;;;;;;;9.83;100.00;99867.03;4992365;28;20054;-84
2023/03/31 02:54:46;;;;;;;10.02;2.42;;;;;;;9.81;100.00;99863.59;4975076;28;20038;-83
2023/03/31 02:57:49;;;;;;;8.85;2.63;;;;;;;9.81;100.00;99852.72;4972341;28;20037;-83
2023/03/31 03:00:39;;;;;;;9.68;3.50;;;;;;;9.78;100.00;99840.25;4984855;28;20510;-83
2023/03/31 03:03:35;;;;;;;20.02;3.25;;;;;;;9.79;100.00;99833.84;4969963;28;20053;-84
2023/03/31 03:06:15;;;;;;;10.23;2.25;;;;;;;9.76;100.00;99817.81;4975820;28;20049;-84
2023/03/31 03:09:21;;;;;;;9.50;2.20;;;;;;;9.78;100.00;99817.66;4990419;28;20034;-82
2023/03/31 03:12:14;;;;;;;12.02;2.60;;;;;;;9.79;100.00;99819.38;4991192;28;20038;-84
2023/03/31 03:14:59;;;;;;;12.40;2.22;;;;;;;9.81;100.00;99820.97;4978467;28;20037;-84
2023/03/31 03:17:27;;;;;;;7.00;1.77;;;;;;;9.81;100.00;99820.97;4991594;28;20061;-84
2023/03/31 03:19:55;;;;;;;13.18;3.00;;;;;;;9.81;100.00;99818.25;5000426;28;20021;-84
2023/03/31 03:22:22;;;;;;;12.88;2.75;;;;;;;9.79;100.00;99805.78;4992715;28;20042;-83
2023/03/31 03:24:47;;;;;;;13.77;2.42;;;;;;;9.76;100.00;99797.94;4990008;28;20038;-84
2023/03/31 03:27:13;;;;;;;10.70;2.20;;;;;;;9.75;100.00;99788.91;4993780;28;20372;-84
2023/03/31 03:29:40;;;;;;;14.88;2.72;;;;;;;9.79;100.00;99793.09;4998805;28;20491;-84
2023/03/31 03:32:05;;;;;;;12.02;2.50;;;;;;;9.73;100.00;99788.19;4986772;28;20030;-84
2023/03/31 03:34:31;;;;;;;5.88;1.77;;;;;;;9.74;100.00;99789.88;4971333;28;20034;-84
2023/03/31 03:36:56;;;;;;;12.07;2.38;;;;;;;9.73;100.00;99780.03;4974494;28;20494;-84
2023/03/31 03:39:22;;;;;;;7.00;2.40;;;;;;;9.69;100.00;99779.44;4973454;28;20038;-83
2023/03/31 03:41:47;;;;;;;8.05;3.28;;;;;;;9.71;100.00;99768.44;5002120;28;20057;-84
2023/03/31 03:44:12;;;;;;;12.13;2.75;;;;;;;9.75;100.00;99761.75;4991620;28;20127;-83
2023/03/31 03:46:38;;;;;;;11.23;2.22;;;;;;;9.73;100.00;99758.31;4993393;28;20036;-84
2023/03/31 03:49:03;;;;;;;10.05;1.90;;;;;;;9.70;100.00;99736.84;4978831;28;20046;-83
2023/03/31 03:51:29;;;;;;;6.55;2.38;;;;;;;9.72;100.00;99743.00;4992546;28;20054;-84
2023/03/31 03:53:54;;;;;;;9.82;2.88;;;;;;;9.69;100.00;99732.41;4993003;28;20482;-83
2023/03/31 03:56:20;;;;;;;6.82;2.10;;;;;;;9.71;100.00;99728.56;4971197;28;20092;-83
2023/03/31 03:58:46;;;;;;;8.63;2.20;;;;;;;9.73;100.00;99724.84;4970891;28;20065;-84
2023/03/31 04:01:11;;;;;;;12.18;2.65;;;;;;;9.69;100.00;99714.25;4970520;28;20501;-83
2023/03/31 04:03:37;;;;;;;9.63;2.60;;;;;;;9.70;100.00;99705.13;4994706;28;20076;-84
2023/03/31 04:06:02;;;;;;;7.97;1.77;;;;;;;9.69;100.00;99702.53;4989964;28;20026;-84
2023/03/31 04:08:27;;;;;;;6.97;2.10;;;;;;;9.59;100.00;99679.88;5005718;28;20030;-84
2023/03/31 04:10:53;;;;;;;10.68;2.05;;;;;;;9.63;100.00;99684.06;5006656;28;20116;-83
2023/03/31 04:13:19;;;;;;;12.35;2.63;;;;;;;9.63;100.00;99684.06;5005995;28;20045;-83
2023/03/31 04:15:45;;;;;;;9.88;1.90;;;;;;;9.58;100.00;99672.75;4988862;28;20026;-85
2023/03/31 04:18:17;;;;;;;10.07;2.25;;;;;;;9.62;100.00;99675.06;4978576;28;20512;-84
2023/03/31 04:20:44;;;;;;;9.43;2.00;;;;;;;9.62;100.00;99660.63;5005895;28;20482;-84
2023/03/31 04:23:09;;;;;;;6.55;1.80;;;;;;;9.61;100.00;99659.78;4987569;28;20034;-84
2023/03/31 04:25:37;;;;;;;10.48;2.00;;;;;;;9.61;100.00;99657.06;4971699;28;20054;-83
2023/03/31 04:28:05;;;;;;;7.57;2.10;;;;;;;9.62;100.00;99653.34;4987572;28;20061;-84
2023/03/31 04:30:32;;;;;;;8.10;1.80;;;;;;;9.63;100.00;99646.03;4969900;28;20153;-84
2023/03/31 04:32:59;;;;;;;9.98;1.92;;;;;;;9.63;100.00;99641.47;4987110;28;20042;-84
2023/03/31 04:35:26;;;;;;;5.05;1.52;;;;;;;9.58;100.00;99622.00;4971253;28;20038;-84
2023/03/31 04:38:01;;;;;;;8.27;2.30;;;;;;;9.61;100.00;99624.47;5003237;28;20056;-84
2023/03/31 04:40:26;;;;;;;6.82;1.98;;;;;;;9.56;100.00;99610.44;5006973;28;20041;-84
2023/03/31 04:42:52;;;;;;;5.30;1.90;;;;;;;9.55;100.00;99615.97;4999110;28;20027;-84
2023/03/31 04:45:17;;;;;;;13.07;2.10;;;;;;;9.56;100.00;99596.88;5002761;28;20426;-84
2023/03/31 04:47:43;;;;;;;6.50;2.42;;;;;;;9.59;100.00;99596.56;4986749;28;20018;-83
2023/03/31 04:50:12;;;;;;;6.63;2.03;;;;;;;9.44;100.00;99562.66;5006567;28;20049;-84
2023/03/31 04:52:38;;;;;;;9.75;2.33;;;;;;;9.61;100.00;99586.44;5002081;28;20045;-84
2023/03/31 04:55:05;;;;;;;8.77;2.20;;;;;;;9.58;100.00;99586.72;4987572;28;20037;-83
2023/03/31 04:57:30;;;;;;;5.18;1.73;;;;;;;9.55;100.00;99581.53;4993139;28;20053;-84
2023/03/31 04:59:55;;;;;;;11.10;1.90;;;;;;;9.59;100.00;99582.13;5009654;28;20128;-83
2023/03/31 05:02:22;;;;;;;8.73;1.90;;;;;;;9.55;100.00;99573.41;5009486;28;20501;-83
2023/03/31 05:04:51;;;;;;;5.35;1.48;;;;;;;9.55;100.00;99572.53;4992399;28;20113;-83
2023/03/31 05:07:18;;;;;;;8.40;2.13;;;;;;;9.52;100.00;99560.13;4990863;28;20057;-84
2023/03/31 05:09:44;;;;;;;9.18;2.25;;;;;;;9.51;100.00;99557.50;4974762;28;20056;-84
2023/03/31 05:12:09;;;;;;;5.95;1.65;;;;;;;9.41;100.00;99538.47;4974140;28;20121;-84
2023/03/31 05:14:35;;;;;;;8.02;1.42;;;;;;;9.41;100.00;99533.03;4974305;28;20038;-84
2023/03/31 05:17:00;;;;;;;9.02;2.03;;;;;;;9.44;100.00;99530.06;5006535;28;20045;-84
2023/03/31 05:19:26;;;;;;;7.13;1.67;;;;;;;9.40;100.00;99526.75;4994505;28;20233;-83
2023/03/31 05:21:51;;;;;;;5.32;1.75;;;;;;;9.43;100.00;99531.94;4991705;28;20046;-83
2023/03/31 05:24:16;;;;;;;8.98;2.42;;;;;;;9.41;100.00;99522.19;4987082;28;20446;-83
2023/03/31 05:26:47;;;;;;;6.97;1.80;;;;;;;9.40;100.00;99510.47;4992238;28;20117;-83
2023/03/31 05:29:13;;;;;;;8.35;2.60;;;;;;;9.40;100.00;99520.47;4990072;28;20042;-84
2023/03/31 05:31:38;;;;;;;8.15;1.58;;;;;;;9.43;100.00;99514.78;4970098;28;20057;-84
2023/03/31 05:34:04;;;;;;;5.68;1.55;;;;;;;9.40;100.00;99509.63;4979414;28;20038;-83
2023/03/31 05:36:31;;;;;;;6.95;1.88;;;;;;;9.42;100.00;99500.34;4992542;28;20454;-83
2023/03/31 05:38:56;;;;;;;5.00;2.10;;;;;;;9.41;100.00;99500.47;4974630;28;20108;-83
2023/03/31 05:41:21;;;;;;;5.70;1.70;;;;;;;9.39;100.00;99500.63;4974205;28;20034;-83
2023/03/31 05:43:47;;;;;;;7.20;1.88;;;;;;;9.38;100.00;99496.19;5004805;28;20396;-83
2023/03/31 05:46:12;;;;;;;3.38;1.70;;;;;;;9.41;100.00;99497.75;4989641;28;20038;-83
2023/03/31 05:48:38;;;;;;;5.18;1.70;;;;;;;9.40;100.00;99496.91;4990992;28;20474;-83
2023/03/31 05:51:04;;;;;;;6.45;1.42;;;;;;;9.42;100.00;99503.06;4973602;28;20050;-83
2023/03/31 05:53:30;;;;;;;8.52;1.90;;;;;;;9.43;100.00;99487.63;4973662;28;20371;-83
2023/03/31 05:55:57;;;;;;;8.40;2.00;;;;;;;9.42;100.00;99494.94;4974017;28;20513;-84
2023/03/31 05:58:22;;;;;;;10.73;2.10;;;;;;;9.43;100.00;99490.34;4992876;28;20034;-84
2023/03/31 06:00:48;;;;;;;5.95;1.75;;;;;;;9.41;100.00;99485.03;4988290;28;20033;-83
2023/03/31 06:03:13;;;;;;;5.25;1.52;;;;;;;9.42;100.00;99489.50;4973947;28;20053;-83
2023/03/31 06:05:40;;;;;;;5.35;1.83;;;;;;;9.45;100.00;99493.78;4989319;28;20397;-84
2023/03/31 06:08:06;;;;;;;5.70;1.60;;;;;;;9.45;100.00;99481.06;4979351;28;20034;-85
2023/03/31 06:10:32;;;;;;;4.50;1.48;;;;;;;9.37;100.00;99471.88;4989994;28;20034;-86
2023/03/31 06:12:57;;;;;;;5.70;1.60;;;;;;;9.41;100.00;99478.75;4998137;28;20422;-85
2023/03/31 06:15:22;;;;;;;3.85;2.08;;;;;;;9.39;100.00;99467.19;5008539;28;20457;-85
2023/03/31 06:17:48;;;;;;;5.18;1.90;;;;;;;9.37;100.00;99464.63;4992524;28;20048;-84
2023/03/31 06:20:14;;;;;;;11.13;2.22;;;;;;;9.36;100.00;99462.88;4990661;28;20505;-84
2023/03/31 06:22:39;;;;;;;5.03;1.65;;;;;;;9.35;100.00;99457.59;5005708;28;20022;-84
2023/03/31 06:25:05;;;;;;;5.10;1.63;;;;;;;9.38;100.00;99446.47;4983216;28;20038;-85
2023/03/31 06:27:30;;;;;;;8.57;2.20;;;;;;;9.33;100.00;99446.03;4989362;28;20034;-86
2023/03/31 06:29:56;;;;;;;5.07;1.83;;;;;;;9.30;100.00;99441.72;4988795;28;20053;-84
2023/03/31 06:32:21;;;;;;;10.75;2.20;;;;;;;9.36;100.00;99470.16;4989435;28;20360;-91
2023/03/31 06:34:46;;;;;;;9.30;2.20;;;;;;;9.30;100.00;99449.88;4988816;28;20057;-87
2023/03/31 06:37:12;;;;;;;6.32;2.10;;;;;;;9.31;100.00;99450.72;4983062;28;20064;-85
2023/03/31 06:39:38;;;;;;;6.75;2.25;;;;;;;9.28;100.00;99432.88;4974172;28;20038;-86
2023/03/31 06:42:04;;;;;;;4.07;2.17;;;;;;;9.30;100.00;99435.44;4981541;28;20510;-85
2023/03/31 06:44:31;;;;;;;4.63;1.90;;;;;;;9.31;100.00;99421.72;4971282;28;20038;-85
2023/03/31 06:46:56;;;;;;;4.00;1.77;;;;;;;9.35;100.00;99414.19;4965971;28;20491;-83
2023/03/31 06:49:22;;;;;;;7.28;2.22;;;;;;;9.42;100.00;99418.91;4989479;28;20379;-84
2023/03/31 06:51:47;;;;;;;4.80;2.80;;;;;;;9.41;100.00;99429.91;4971432;28;20663;-86
2023/03/31 06:54:13;;;;;;;5.78;2.58;;;;;;;9.43;100.00;99419.78;4972074;28;20076;-85
2023/03/31 06:56:38;;;;;;;7.13;2.47;;;;;;;9.45;100.00;99402.34;4977747;28;20018;-85
2023/03/31 06:59:04;;;;;;;5.35;2.80;;;;;;;9.51;100.00;99441.63;4991200;28;20049;-86
2023/03/31 07:01:30;;;;;;;5.55;3.30;;;;;;;9.46;100.00;99433.06;4971678;28;20030;-85
2023/03/31 07:03:56;;;;;;;2.97;2.55;;;;;;;9.48;100.00;99431.06;4987954;28;20061;-88
2023/03/31 07:06:21;;;;;;;7.47;2.38;;;;;;;9.52;100.00;99437.09;4991193;28;20450;-88
2023/03/31 07:08:47;;;;;;;4.00;2.35;;;;;;;9.49;100.00;99426.50;4974737;28;20046;-86
2023/03/31 07:11:12;;;;;;;4.95;2.78;;;;;;;9.48;100.00;99411.22;4989379;28;20402;-84
2023/03/31 07:13:38;;;;;;;6.75;2.20;;;;;;;9.51;100.00;99410.91;4987869;28;20030;-85
2023/03/31 07:16:03;;;;;;;5.88;2.35;;;;;;;9.56;100.00;99404.09;4968919;28;20042;-84
2023/03/31 07:18:33;;;;;;;5.10;2.75;;;;;;;9.58;100.00;99409.38;4992449;28;20034;-84
2023/03/31 07:20:59;;;;;;;6.68;3.13;;;;;;;9.55;100.00;99388.78;4988893;28;20038;-85
2023/03/31 07:23:24;;;;;;;6.57;3.38;;;;;;;9.64;100.00;99396.09;4974871;28;20022;-84
2023/03/31 07:25:50;;;;;;;9.45;3.40;;;;;;;9.68;100.00;99396.66;4996250;28;20108;-85
2023/03/31 07:28:15;;;;;;;10.13;3.05;;;;;;;9.73;100.00;99390.81;4968727;28;20038;-84
2023/03/31 07:30:41;;;;;;;8.30;2.95;;;;;;;9.76;100.00;99398.69;4981112;28;20034;-84
2023/03/31 07:33:08;;;;;;;8.82;2.90;;;;;;;9.78;100.00;99400.25;4974956;28;20041;-84
2023/03/31 07:35:36;;;;;;;8.45;2.42;;;;;;;9.78;100.00;99389.38;4972250;28;20026;-85
2023/03/31 07:38:02;;;;;;;15.98;3.08;;;;;;;9.81;100.00;99385.53;4988839;28;20070;-85
2023/03/31 07:40:28;;;;;;;11.73;2.78;;;;;;;9.87;100.00;99379.53;4971703;28;20084;-85
2023/03/31 07:42:53;;;;;;;7.10;2.15;;;;;;;9.88;100.00;99362.22;4987645;28;20422;-85
2023/03/31 07:45:21;;;;;;;11.32;2.97;;;;;;;9.95;100.00;99374.25;4987324;28;20026;-85
2023/03/31 07:47:47;;;;;;;6.25;1.85;;;;;;;10.01;100.00;99373.66;4971698;28;20371;-85
2023/03/31 07:50:14;;;;;;;7.88;2.00;;;;;;;10.10;100.00;99375.50;4952604;28;20054;-85
2023/03/31 07:52:40;;;;;;;6.63;2.60;;;;;;;10.15;100.00;99366.91;4980989;28;20058;-85
2023/03/31 07:55:07;;;;;;;7.78;2.25;;;;;;;10.26;100.00;99374.09;4988220;28;20092;-87
2023/03/31 07:57:33;;;;;;;12.13;2.25;;;;;;;10.32;100.00;99359.94;4972760;28;20046;-86
2023/03/31 07:59:58;;;;;;;9.15;2.13;;;;;;;10.43;100.00;99357.03;4971734;28;20034;-86
2023/03/31 08:02:24;;;;;;;10.02;2.30;;;;;;;10.47;100.00;99359.31;4970849;28;20514;-84
2023/03/31 08:04:49;;;;;;;10.90;2.50;;;;;;;10.58;100.00;99368.28;5000774;28;20039;-85
2023/03/31 08:07:15;;;;;;;13.88;2.80;;;;;;;10.62;100.00;99364.28;4966371;28;20034;-86
2023/03/31 08:09:43;;;;;;;8.68;2.38;;;;;;;10.67;100.00;99365.53;4962983;28;20027;-85
2023/03/31 08:12:08;;;;;;;14.25;3.60;;;;;;;10.72;100.00;99359.66;4976440;28;20026;-85
2023/03/31 08:14:34;;;;;;;13.35;2.80;;;;;;;10.79;100.00;99354.50;4981643;28;20045;-85
2023/03/31 08:16:59;;;;;;;11.60;2.72;;;;;;;10.87;100.00;99351.91;4970263;28;20479;-85
2023/03/31 08:19:26;;;;;;;12.88;2.72;;;;;;;10.91;100.00;99348.72;4986170;28;20038;-85
2023/03/31 08:21:51;;;;;;;10.73;3.13;;;;;;;10.98;100.00;99348.97;4987754;28;20096;-85
2023/03/31 08:24:17;;;;;;;13.35;3.38;;;;;;;11.02;100.00;99342.22;4970588;28;20034;-85
2023/03/31 08:26:43;;;;;;;10.25;3.22;;;;;;;11.13;100.00;99350.16;4987041;28;20085;-84
2023/03/31 08:29:08;;;;;;;14.65;2.97;;;;;;;11.21;100.00;99353.00;4993500;28;20042;-85
2023/03/31 08:31:33;;;;;;;16.13;3.10;;;;;;;11.28;100.00;99349.66;4987658;28;20052;-84
2023/03/31 08:33:59;;;;;;;13.63;3.00;;;;;;;11.35;100.00;99343.47;4970518;28;20498;-85
2023/03/31 08:36:25;;;;;;;11.73;3.00;;;;;;;11.45;100.00;99354.28;4973971;28;20038;-85
2023/03/31 08:38:52;;;;;;;13.60;3.03;;;;;;;11.52;100.00;99347.22;4972454;28;20030;-85
2023/03/31 08:41:45;;;;;;;13.38;2.85;;;;;;;11.59;100.00;99348.31;4972383;28;20038;-84
2023/03/31 08:44:15;;;;;;;15.17;3.23;;;;;;;11.65;100.00;99347.69;4998089;28;20042;-84
2023/03/31 08:46:42;;;;;;;14.15;3.20;;;;;;;11.70;100.00;99345.38;4967338;28;20128;-85
2023/03/31 08:49:14;;;;;;;8.68;2.50;;;;;;;11.68;100.00;99332.91;4983872;28;20045;-85
2023/03/31 08:51:42;;;;;;;14.73;3.47;;;;;;;11.71;100.00;99340.78;4978991;28;20069;-84
2023/03/31 08:54:19;;;;;;;13.98;3.08;;;;;;;11.66;100.00;99335.78;4988327;28;20036;-85
2023/03/31 08:56:48;;;;;;;18.35;2.55;;;;;;;11.74;100.00;99341.28;4970610;28;20478;-85
2023/03/31 08:59:26;;;;;;;13.75;3.28;;;;;;;11.84;100.00;99338.53;4993134;28;20044;-84
2023/03/31 09:02:13;;;;;;;16.70;2.88;;;;;;;11.93;100.00;99343.03;4999291;28;20046;-85
2023/03/31 09:04:53;;;;;;;15.18;3.10;;;;;;;12.00;98.65;99343.28;4990111;28;20038;-83
2023/03/31 09:07:53;;;;;;;17.58;3.55;;;;;;;12.08;99.58;99337.91;4964500;28;20196;-84
2023/03/31 09:10:47;;;;;;;12.55;3.40;;;;;;;12.15;96.96;99336.25;4987360;28;20053;-83
2023/03/31 09:13:35;;;;;;;19.55;2.75;;;;;;;12.26;98.02;99337.84;4977321;28;20563;-84
2023/03/31 09:16:11;;;;;;;18.42;3.45;;;;;;;12.39;96.16;99324.66;4992174;28;20410;-84
2023/03/31 09:18:39;;;;;;;14.40;2.85;;;;;;;12.44;96.01;99324.16;4979791;28;20034;-84
2023/03/31 09:21:23;;;;;;;10.57;4.00;;;;;;;12.57;95.94;99326.47;4993077;28;20116;-84
2023/03/31 09:24:18;;;;;;;12.18;2.58;;;;;;;12.66;95.80;99322.78;5010223;28;20441;-84
2023/03/31 09:26:48;;;;;;;15.88;3.13;;;;;;;12.67;92.74;99316.28;4979614;28;20512;-84
2023/03/31 09:29:43;;;;;;;13.82;3.47;;;;;;;12.58;91.49;99311.81;5001741;28;20581;-84
2023/03/31 09:32:21;;;;;;;14.45;3.33;;;;;;;12.48;88.51;99315.50;4973153;28;20129;-85
2023/03/31 09:34:51;;;;;;;11.70;3.13;;;;;;;12.41;89.12;99314.47;4970150;28;20502;-84
2023/03/31 09:37:17;;;;;;;16.10;2.90;;;;;;;12.41;89.50;99311.72;4981279;28;20494;-85
2023/03/31 09:39:42;;;;;;;14.48;2.63;;;;;;;12.43;89.18;99306.94;4988985;28;20098;-84
2023/03/31 09:42:11;;;;;;;12.63;2.80;;;;;;;12.45;90.17;99301.31;4988476;28;20038;-84
2023/03/31 09:44:43;;;;;;;14.48;2.92;;;;;;;12.45;90.09;99301.31;4993419;28;20498;-83
2023/03/31 09:47:15;;;;;;;14.25;3.25;;;;;;;12.59;90.55;99303.50;4989422;28;20037;-83
2023/03/31 09:49:44;;;;;;;16.55;2.70;;;;;;;12.60;87.71;99298.88;4986713;28;20162;-86
2023/03/31 09:52:29;;;;;;;14.48;3.22;;;;;;;12.72;88.32;99295.69;4944770;28;20486;-84
2023/03/31 09:54:59;;;;;;;11.52;2.25;;;;;;;12.81;89.11;99307.50;4986504;28;20045;-84
2023/03/31 09:57:26;;;;;;;15.48;2.80;;;;;;;12.87;87.35;99292.34;4972721;28;20153;-85
2023/03/31 09:59:52;;;;;;;11.02;2.83;;;;;;;12.96;87.01;99286.78;4973235;28;20119;-85
2023/03/31 10:02:37;;;;;;;11.30;2.67;;;;;;;13.00;86.73;99282.66;4983697;28;20512;-83
2023/03/31 10:05:05;;;;;;;11.70;3.03;;;;;;;12.98;85.43;99281.16;4991616;28;20038;-85
2023/03/31 10:07:32;;;;;;;9.32;2.65;;;;;;;12.97;84.31;99282.16;4989757;28;20482;-86
2023/03/31 10:09:57;;;;;;;13.90;2.60;;;;;;;13.07;85.59;99284.75;4972299;28;20085;-85
2023/03/31 10:12:27;;;;;;;9.45;2.50;;;;;;;13.21;85.92;99282.25;4973260;28;20487;-84
2023/03/31 10:15:00;;;;;;;12.02;1.98;;;;;;;13.22;82.47;99285.84;4986026;28;20049;-85
2023/03/31 10:17:27;;;;;;;11.55;2.20;;;;;;;13.12;81.99;99276.91;4981889;28;20690;-85
2023/03/31 10:19:58;;;;;;;9.82;2.28;;;;;;;12.99;83.57;99255.53;4978256;28;20408;-84
2023/03/31 10:22:31;;;;;;;10.18;2.42;;;;;;;13.04;81.29;99272.28;4983370;28;20041;-85
2023/03/31 10:25:15;;;;;;;10.70;2.45;;;;;;;13.00;84.24;99269.03;4980410;28;20050;-84
2023/03/31 10:27:48;;;;;;;7.82;2.08;;;;;;;13.10;82.22;99263.41;4984226;28;20022;-85
2023/03/31 10:30:21;;;;;;;8.15;1.95;;;;;;;13.13;82.63;99276.75;4988536;28;20035;-85
2023/03/31 10:32:47;;;;;;;13.38;2.60;;;;;;;13.22;83.55;99272.19;4990322;28;20097;-83
2023/03/31 10:35:25;;;;;;;10.95;1.77;;;;;;;13.30;85.23;99268.66;5004742;28;20041;-83
2023/03/31 10:37:55;;;;;;;10.40;2.60;;;;;;;13.26;83.84;99271.69;4977154;28;20051;-84
2023/03/31 10:40:25;;;;;;;11.52;1.95;;;;;;;13.12;81.46;99269.59;4991971;28;20136;-83
2023/03/31 10:43:14;;;;;;;12.73;3.20;;;;;;;12.97;82.09;99257.59;4969134;28;20557;-83
2023/03/31 10:45:51;;;;;;;9.00;2.38;;;;;;;12.92;83.52;99257.25;4985841;28;20142;-83
2023/03/31 10:48:29;;;;;;;9.40;2.10;;;;;;;12.93;84.27;99258.94;4990611;28;20036;-82
2023/03/31 10:51:03;;;;;;;12.55;3.35;;;;;;;12.94;83.21;99249.72;4974730;28;20048;-83
2023/03/31 10:53:29;;;;;;;14.02;2.50;;;;;;;13.05;83.25;99252.13;4970676;28;20073;-84
2023/03/31 10:56:03;;;;;;;8.63;2.30;;;;;;;13.07;82.29;99243.81;4990478;28;20081;-83
2023/03/31 10:59:05;;;;;;;11.68;2.05;;;;;;;13.14;82.59;99250.28;4981941;28;20040;-83
2023/03/31 11:01:55;;;;;;;9.73;2.22;;;;;;;13.32;84.52;99234.66;4987296;28;20141;-83
2023/03/31 11:04:36;;;;;;;14.60;2.35;;;;;;;13.39;82.54;99246.63;5000953;28;20466;-83
2023/03/31 11:07:31;;;;;;;11.85;2.20;;;;;;;13.27;81.58;99246.09;4981521;28;20037;-84
2023/03/31 11:10:19;;;;;;;10.80;2.30;;;;;;;13.14;82.89;99237.50;4989033;28;20096;-84
2023/03/31 11:12:55;;;;;;;13.10;2.60;;;;;;;13.06;82.24;99236.66;4973735;28;20025;-84
2023/03/31 11:15:27;;;;;;;13.85;2.72;;;;;;;12.99;82.52;99247.34;4988077;28;20038;-83
2023/03/31 11:18:11;;;;;;;9.60;2.10;;;;;;;13.14;84.67;99244.84;4989147;28;20053;-83
2023/03/31 11:21:08;;;;;;;11.13;2.05;;;;;;;13.23;82.06;99246.59;4996872;28;20041;-84
2023/03/31 11:23:45;;;;;;;12.27;2.83;;;;;;;13.25;83.55;99220.84;5015157;28;20486;-84
2023/03/31 11:26:40;;;;;;;10.13;2.97;;;;;;;13.43;82.39;99228.00;4989020;28;20034;-83
2023/03/31 11:29:29;;;;;;;15.85;2.53;;;;;;;13.70;83.56;99214.00;4974500;28;20099;-82
2023/03/31 11:32:25;;;;;;;13.20;3.00;;;;;;;13.82;81.73;99211.81;4962848;28;20061;-84
2023/03/31 11:35:05;;;;;;;15.75;3.08;;;;;;;13.95;80.65;99209.41;4981560;28;20046;-84
2023/03/31 11:37:41;;;;;;;13.77;2.88;;;;;;;14.00;79.01;99215.19;4985500;28;20027;-83
2023/03/31 11:40:19;;;;;;;12.98;2.45;;;;;;;14.04;78.72;99204.78;4986684;28;20046;-83
2023/03/31 11:42:57;;;;;;;10.45;2.42;;;;;;;14.02;78.34;99204.94;4988712;28;20486;-84
2023/03/31 11:45:58;;;;;;;9.15;2.30;;;;;;;13.93;77.83;99200.50;4986455;28;20121;-83
2023/03/31 11:48:39;;;;;;;11.70;2.40;;;;;;;13.72;77.60;99205.66;4949991;28;20050;-82